sensor_id;sensor_type;location;lat;lon;timestamp;P1;durP1;ratioP1;P2;durP2;ratioP2
29500;SDS011;16450;50.288;10.966;2023-02-15T00:00:04;20.83;;;10.47;;
29500;SDS011;16450;50.288;10.966;2023-02-15T00:03:07;20.13;;;10.13;;
29500;SDS011;16450;50.288;10.966;2023-02-15T00:06:09;29.83;;;11.40;;
29500;SDS011;16450;50.288;10.966;2023-02-15T00:09:11;24.00;;;10.33;;
29500;SDS011;16450;50.288;10.966;2023-02-15T00:12:13;28.43;;;9.87;;
29500;SDS011;16450;50.288;10.966;2023-02-15T00:15:17;27.13;;;9.83;;
29500;SDS011;16450;50.288;10.966;2023-02-15T00:18:18;28.20;;;10.73;;
29500;SDS011;16450;50.288;10.966;2023-02-15T00:21:20;34.00;;;10.70;;
29500;SDS011;16450;50.288;10.966;2023-02-15T00:24:22;45.07;;;11.07;;
29500;SDS011;16450;50.288;10.966;2023-02-15T00:27:24;53.10;;;11.10;;
29500;SDS011;16450;50.288;10.966;2023-02-15T00:30:26;24.47;;;10.27;;
29500;SDS011;16450;50.288;10.966;2023-02-15T00:33:27;38.03;;;10.27;;
29500;SDS011;16450;50.288;10.966;2023-02-15T00:36:30;28.70;;;10.30;;
29500;SDS011;16450;50.288;10.966;2023-02-15T00:39:31;58.00;;;12.23;;
29500;SDS011;16450;50.288;10.966;2023-02-15T00:42:33;57.73;;;11.03;;
29500;SDS011;16450;50.288;10.966;2023-02-15T00:45:35;30.83;;;10.97;;
29500;SDS011;16450;50.288;10.966;2023-02-15T00:48:38;24.93;;;10.20;;
29500;SDS011;16450;50.288;10.966;2023-02-15T00:51:40;28.60;;;10.40;;
29500;SDS011;16450;50.288;10.966;2023-02-15T00:54:41;30.23;;;11.20;;
29500;SDS011;16450;50.288;10.966;2023-02-15T00:57:43;27.07;;;9.70;;
29500;SDS011;16450;50.288;10.966;2023-02-15T01:00:46;26.30;;;10.07;;
29500;SDS011;16450;50.288;10.966;2023-02-15T01:03:48;20.20;;;9.20;;
29500;SDS011;16450;50.288;10.966;2023-02-15T01:06:50;29.10;;;9.23;;
29500;SDS011;16450;50.288;10.966;2023-02-15T01:09:52;58.20;;;10.97;;
29500;SDS011;16450;50.288;10.966;2023-02-15T01:12:54;25.67;;;10.10;;
29500;SDS011;16450;50.288;10.966;2023-02-15T01:15:56;37.50;;;10.00;;
29500;SDS011;16450;50.288;10.966;2023-02-15T01:18:58;31.93;;;9.50;;
29500;SDS011;16450;50.288;10.966;2023-02-15T01:22:00;52.17;;;10.77;;
29500;SDS011;16450;50.288;10.966;2023-02-15T01:25:02;49.33;;;11.27;;
29500;SDS011;16450;50.288;10.966;2023-02-15T01:28:04;34.63;;;10.87;;
29500;SDS011;16450;50.288;10.966;2023-02-15T01:31:10;33.97;;;10.73;;
29500;SDS011;16450;50.288;10.966;2023-02-15T01:34:13;27.87;;;10.20;;
29500;SDS011;16450;50.288;10.966;2023-02-15T01:37:15;26.40;;;9.90;;
29500;SDS011;16450;50.288;10.966;2023-02-15T01:40:17;27.10;;;10.10;;
29500;SDS011;16450;50.288;10.966;2023-02-15T01:43:19;43.90;;;10.43;;
29500;SDS011;16450;50.288;10.966;2023-02-15T01:46:23;34.77;;;10.53;;
29500;SDS011;16450;50.288;10.966;2023-02-15T01:49:32;36.70;;;10.40;;
29500;SDS011;16450;50.288;10.966;2023-02-15T01:52:35;38.47;;;9.93;;
29500;SDS011;16450;50.288;10.966;2023-02-15T01:55:41;51.30;;;10.93;;
29500;SDS011;16450;50.288;10.966;2023-02-15T01:58:48;25.27;;;9.93;;
29500;SDS011;16450;50.288;10.966;2023-02-15T02:01:54;60.57;;;10.50;;
29500;SDS011;16450;50.288;10.966;2023-02-15T02:04:59;47.40;;;10.70;;
29500;SDS011;16450;50.288;10.966;2023-02-15T02:08:09;51.43;;;12.17;;
29500;SDS011;16450;50.288;10.966;2023-02-15T02:11:15;20.43;;;9.40;;
29500;SDS011;16450;50.288;10.966;2023-02-15T02:14:17;28.57;;;9.00;;
29500;SDS011;16450;50.288;10.966;2023-02-15T02:17:29;31.50;;;9.87;;
29500;SDS011;16450;50.288;10.966;2023-02-15T02:24:14;45.97;;;9.37;;
29500;SDS011;16450;50.288;10.966;2023-02-15T02:27:37;34.03;;;9.20;;
29500;SDS011;16450;50.288;10.966;2023-02-15T02:33:57;36.80;;;9.30;;
29500;SDS011;16450;50.288;10.966;2023-02-15T02:40:25;26.07;;;8.83;;
29500;SDS011;16450;50.288;10.966;2023-02-15T02:47:12;27.07;;;9.43;;
29500;SDS011;16450;50.288;10.966;2023-02-15T02:50:24;44.70;;;11.07;;
29500;SDS011;16450;50.288;10.966;2023-02-15T02:53:28;43.77;;;10.50;;
29500;SDS011;16450;50.288;10.966;2023-02-15T02:59:38;32.63;;;9.43;;
29500;SDS011;16450;50.288;10.966;2023-02-15T03:02:43;27.70;;;9.80;;
29500;SDS011;16450;50.288;10.966;2023-02-15T03:05:48;27.33;;;9.87;;
29500;SDS011;16450;50.288;10.966;2023-02-15T03:09:06;31.50;;;9.37;;
29500;SDS011;16450;50.288;10.966;2023-02-15T03:12:20;39.80;;;11.50;;
29500;SDS011;16450;50.288;10.966;2023-02-15T03:15:30;22.67;;;9.47;;
29500;SDS011;16450;50.288;10.966;2023-02-15T03:22:18;26.53;;;8.47;;
29500;SDS011;16450;50.288;10.966;2023-02-15T03:25:30;40.93;;;10.10;;
29500;SDS011;16450;50.288;10.966;2023-02-15T03:28:35;36.30;;;9.90;;
29500;SDS011;16450;50.288;10.966;2023-02-15T03:31:43;26.13;;;9.20;;
29500;SDS011;16450;50.288;10.966;2023-02-15T03:34:47;24.93;;;9.17;;
29500;SDS011;16450;50.288;10.966;2023-02-15T03:37:54;39.73;;;9.60;;
29500;SDS011;16450;50.288;10.966;2023-02-15T03:41:02;30.33;;;9.63;;
29500;SDS011;16450;50.288;10.966;2023-02-15T03:44:13;30.53;;;9.43;;
29500;SDS011;16450;50.288;10.966;2023-02-15T03:47:41;31.97;;;9.30;;
29500;SDS011;16450;50.288;10.966;2023-02-15T03:50:46;28.00;;;8.80;;
29500;SDS011;16450;50.288;10.966;2023-02-15T03:54:08;24.87;;;9.17;;
29500;SDS011;16450;50.288;10.966;2023-02-15T03:57:35;35.53;;;8.93;;
29500;SDS011;16450;50.288;10.966;2023-02-15T04:00:59;22.27;;;8.97;;
29500;SDS011;16450;50.288;10.966;2023-02-15T04:04:45;26.20;;;8.70;;
29500;SDS011;16450;50.288;10.966;2023-02-15T04:07:48;21.10;;;8.47;;
29500;SDS011;16450;50.288;10.966;2023-02-15T04:10:50;22.83;;;8.77;;
29500;SDS011;16450;50.288;10.966;2023-02-15T04:13:57;30.53;;;9.23;;
29500;SDS011;16450;50.288;10.966;2023-02-15T04:16:59;19.93;;;9.23;;
29500;SDS011;16450;50.288;10.966;2023-02-15T04:20:01;18.80;;;9.13;;
29500;SDS011;16450;50.288;10.966;2023-02-15T04:23:22;35.83;;;9.80;;
29500;SDS011;16450;50.288;10.966;2023-02-15T04:26:42;28.17;;;9.53;;
29500;SDS011;16450;50.288;10.966;2023-02-15T04:29:44;39.17;;;9.57;;
29500;SDS011;16450;50.288;10.966;2023-02-15T04:32:46;23.47;;;9.80;;
29500;SDS011;16450;50.288;10.966;2023-02-15T04:35:48;27.63;;;9.30;;
29500;SDS011;16450;50.288;10.966;2023-02-15T04:38:50;25.50;;;9.63;;
29500;SDS011;16450;50.288;10.966;2023-02-15T04:41:51;28.30;;;9.27;;
29500;SDS011;16450;50.288;10.966;2023-02-15T04:44:53;27.37;;;10.13;;
29500;SDS011;16450;50.288;10.966;2023-02-15T04:47:55;49.40;;;11.30;;
29500;SDS011;16450;50.288;10.966;2023-02-15T04:50:57;22.97;;;9.93;;
29500;SDS011;16450;50.288;10.966;2023-02-15T04:53:58;26.03;;;9.47;;
29500;SDS011;16450;50.288;10.966;2023-02-15T04:57:00;26.97;;;9.07;;
29500;SDS011;16450;50.288;10.966;2023-02-15T05:00:03;26.40;;;10.00;;
29500;SDS011;16450;50.288;10.966;2023-02-15T05:03:05;26.47;;;9.47;;
29500;SDS011;16450;50.288;10.966;2023-02-15T05:06:06;29.63;;;10.87;;
29500;SDS011;16450;50.288;10.966;2023-02-15T05:09:08;29.30;;;9.97;;
29500;SDS011;16450;50.288;10.966;2023-02-15T05:12:11;25.60;;;10.03;;
29500;SDS011;16450;50.288;10.966;2023-02-15T05:15:13;34.13;;;11.03;;
29500;SDS011;16450;50.288;10.966;2023-02-15T05:18:15;20.93;;;9.53;;
29500;SDS011;16450;50.288;10.966;2023-02-15T05:21:18;22.37;;;9.57;;
29500;SDS011;16450;50.288;10.966;2023-02-15T05:24:20;22.67;;;9.80;;
29500;SDS011;16450;50.288;10.966;2023-02-15T05:27:41;18.80;;;9.90;;
29500;SDS011;16450;50.288;10.966;2023-02-15T05:34:15;39.90;;;10.40;;
29500;SDS011;16450;50.288;10.966;2023-02-15T05:37:17;21.03;;;9.97;;
29500;SDS011;16450;50.288;10.966;2023-02-15T05:40:18;27.17;;;11.10;;
29500;SDS011;16450;50.288;10.966;2023-02-15T05:43:20;22.67;;;11.00;;
29500;SDS011;16450;50.288;10.966;2023-02-15T05:46:22;24.60;;;10.70;;
29500;SDS011;16450;50.288;10.966;2023-02-15T05:49:24;22.60;;;10.90;;
29500;SDS011;16450;50.288;10.966;2023-02-15T05:52:26;22.57;;;10.87;;
29500;SDS011;16450;50.288;10.966;2023-02-15T05:55:28;24.53;;;11.90;;
29500;SDS011;16450;50.288;10.966;2023-02-15T05:58:31;27.30;;;12.60;;
29500;SDS011;16450;50.288;10.966;2023-02-15T06:01:35;24.90;;;11.67;;
29500;SDS011;16450;50.288;10.966;2023-02-15T06:04:37;28.00;;;11.87;;
29500;SDS011;16450;50.288;10.966;2023-02-15T06:07:38;30.33;;;10.77;;
29500;SDS011;16450;50.288;10.966;2023-02-15T06:10:40;27.80;;;11.43;;
29500;SDS011;16450;50.288;10.966;2023-02-15T06:13:42;28.77;;;10.87;;
29500;SDS011;16450;50.288;10.966;2023-02-15T06:16:44;21.97;;;11.17;;
29500;SDS011;16450;50.288;10.966;2023-02-15T06:19:45;20.87;;;11.20;;
29500;SDS011;16450;50.288;10.966;2023-02-15T06:22:47;21.90;;;10.83;;
29500;SDS011;16450;50.288;10.966;2023-02-15T06:25:49;30.37;;;11.03;;
29500;SDS011;16450;50.288;10.966;2023-02-15T06:28:51;30.30;;;12.43;;
29500;SDS011;16450;50.288;10.966;2023-02-15T06:31:52;24.03;;;12.30;;
29500;SDS011;16450;50.288;10.966;2023-02-15T06:34:54;26.60;;;12.13;;
29500;SDS011;16450;50.288;10.966;2023-02-15T06:37:56;26.43;;;12.40;;
29500;SDS011;16450;50.288;10.966;2023-02-15T06:40:58;22.33;;;11.43;;
29500;SDS011;16450;50.288;10.966;2023-02-15T06:44:00;25.87;;;11.37;;
29500;SDS011;16450;50.288;10.966;2023-02-15T06:47:02;28.60;;;10.73;;
29500;SDS011;16450;50.288;10.966;2023-02-15T06:50:04;26.67;;;11.30;;
29500;SDS011;16450;50.288;10.966;2023-02-15T06:53:07;22.53;;;11.47;;
29500;SDS011;16450;50.288;10.966;2023-02-15T06:56:09;19.53;;;11.07;;
29500;SDS011;16450;50.288;10.966;2023-02-15T06:59:12;33.37;;;11.90;;
29500;SDS011;16450;50.288;10.966;2023-02-15T07:02:14;29.27;;;11.77;;
29500;SDS011;16450;50.288;10.966;2023-02-15T07:05:16;25.93;;;11.00;;
29500;SDS011;16450;50.288;10.966;2023-02-15T07:08:17;22.57;;;11.43;;
29500;SDS011;16450;50.288;10.966;2023-02-15T07:11:21;24.33;;;11.10;;
29500;SDS011;16450;50.288;10.966;2023-02-15T07:14:41;20.17;;;10.90;;
29500;SDS011;16450;50.288;10.966;2023-02-15T07:17:43;22.23;;;10.90;;
29500;SDS011;16450;50.288;10.966;2023-02-15T07:20:45;20.50;;;11.27;;
29500;SDS011;16450;50.288;10.966;2023-02-15T07:23:48;26.50;;;11.83;;
29500;SDS011;16450;50.288;10.966;2023-02-15T07:26:50;23.20;;;11.20;;
29500;SDS011;16450;50.288;10.966;2023-02-15T07:29:52;26.63;;;11.20;;
29500;SDS011;16450;50.288;10.966;2023-02-15T07:32:57;24.23;;;11.63;;
29500;SDS011;16450;50.288;10.966;2023-02-15T07:36:18;27.43;;;10.67;;
29500;SDS011;16450;50.288;10.966;2023-02-15T07:39:19;25.97;;;11.63;;
29500;SDS011;16450;50.288;10.966;2023-02-15T07:42:22;24.90;;;11.57;;
29500;SDS011;16450;50.288;10.966;2023-02-15T07:45:24;20.13;;;10.07;;
29500;SDS011;16450;50.288;10.966;2023-02-15T07:48:26;22.37;;;10.57;;
29500;SDS011;16450;50.288;10.966;2023-02-15T07:51:28;23.90;;;10.43;;
29500;SDS011;16450;50.288;10.966;2023-02-15T07:54:30;22.33;;;10.90;;
29500;SDS011;16450;50.288;10.966;2023-02-15T07:57:31;23.20;;;10.90;;
29500;SDS011;16450;50.288;10.966;2023-02-15T08:00:33;24.63;;;10.60;;
29500;SDS011;16450;50.288;10.966;2023-02-15T08:03:55;19.13;;;10.13;;
29500;SDS011;16450;50.288;10.966;2023-02-15T08:07:00;20.57;;;10.33;;
29500;SDS011;16450;50.288;10.966;2023-02-15T08:10:02;29.63;;;10.97;;
29500;SDS011;16450;50.288;10.966;2023-02-15T08:13:03;21.83;;;11.53;;
29500;SDS011;16450;50.288;10.966;2023-02-15T08:16:05;26.43;;;12.20;;
29500;SDS011;16450;50.288;10.966;2023-02-15T08:19:15;33.03;;;13.87;;
29500;SDS011;16450;50.288;10.966;2023-02-15T08:22:18;22.23;;;11.43;;
29500;SDS011;16450;50.288;10.966;2023-02-15T08:25:20;24.90;;;11.37;;
29500;SDS011;16450;50.288;10.966;2023-02-15T08:28:22;22.07;;;11.03;;
29500;SDS011;16450;50.288;10.966;2023-02-15T08:31:24;27.33;;;11.70;;
29500;SDS011;16450;50.288;10.966;2023-02-15T08:34:26;24.83;;;11.70;;
29500;SDS011;16450;50.288;10.966;2023-02-15T08:37:28;26.27;;;11.57;;
29500;SDS011;16450;50.288;10.966;2023-02-15T08:40:30;24.63;;;11.27;;
29500;SDS011;16450;50.288;10.966;2023-02-15T08:43:31;20.67;;;10.77;;
29500;SDS011;16450;50.288;10.966;2023-02-15T08:46:34;19.47;;;10.17;;
29500;SDS011;16450;50.288;10.966;2023-02-15T08:49:37;29.47;;;12.33;;
29500;SDS011;16450;50.288;10.966;2023-02-15T08:52:39;24.83;;;11.83;;
29500;SDS011;16450;50.288;10.966;2023-02-15T08:55:41;21.70;;;11.00;;
29500;SDS011;16450;50.288;10.966;2023-02-15T08:58:42;20.80;;;9.93;;
29500;SDS011;16450;50.288;10.966;2023-02-15T09:01:45;18.37;;;9.70;;
29500;SDS011;16450;50.288;10.966;2023-02-15T09:04:47;18.97;;;9.93;;
29500;SDS011;16450;50.288;10.966;2023-02-15T09:07:49;20.63;;;11.87;;
29500;SDS011;16450;50.288;10.966;2023-02-15T09:10:51;21.30;;;10.67;;
29500;SDS011;16450;50.288;10.966;2023-02-15T09:13:57;19.93;;;11.17;;
29500;SDS011;16450;50.288;10.966;2023-02-15T09:17:03;17.77;;;9.83;;
29500;SDS011;16450;50.288;10.966;2023-02-15T09:20:05;34.30;;;14.00;;
29500;SDS011;16450;50.288;10.966;2023-02-15T09:23:07;18.97;;;10.43;;
29500;SDS011;16450;50.288;10.966;2023-02-15T09:26:22;20.90;;;10.67;;
29500;SDS011;16450;50.288;10.966;2023-02-15T09:29:25;19.73;;;9.77;;
29500;SDS011;16450;50.288;10.966;2023-02-15T09:32:27;22.53;;;10.13;;
29500;SDS011;16450;50.288;10.966;2023-02-15T09:35:29;18.10;;;9.67;;
29500;SDS011;16450;50.288;10.966;2023-02-15T09:38:30;19.23;;;10.50;;
29500;SDS011;16450;50.288;10.966;2023-02-15T09:52:01;20.13;;;11.40;;
29500;SDS011;16450;50.288;10.966;2023-02-15T09:55:26;19.40;;;11.30;;
29500;SDS011;16450;50.288;10.966;2023-02-15T09:58:42;22.37;;;11.63;;
29500;SDS011;16450;50.288;10.966;2023-02-15T10:02:11;21.23;;;10.93;;
29500;SDS011;16450;50.288;10.966;2023-02-15T10:21:59;22.67;;;9.67;;
29500;SDS011;16450;50.288;10.966;2023-02-15T10:28:45;17.73;;;10.07;;
29500;SDS011;16450;50.288;10.966;2023-02-15T10:32:24;16.97;;;9.80;;
29500;SDS011;16450;50.288;10.966;2023-02-15T10:38:40;18.00;;;9.63;;
29500;SDS011;16450;50.288;10.966;2023-02-15T10:52:31;19.53;;;10.27;;
29500;SDS011;16450;50.288;10.966;2023-02-15T10:59:15;17.93;;;9.70;;
29500;SDS011;16450;50.288;10.966;2023-02-15T11:02:24;17.13;;;10.03;;
29500;SDS011;16450;50.288;10.966;2023-02-15T11:09:12;17.43;;;10.23;;
29500;SDS011;16450;50.288;10.966;2023-02-15T11:12:17;18.50;;;10.90;;
29500;SDS011;16450;50.288;10.966;2023-02-15T11:15:25;19.77;;;10.30;;
29500;SDS011;16450;50.288;10.966;2023-02-15T11:18:37;18.67;;;10.57;;
29500;SDS011;16450;50.288;10.966;2023-02-15T11:21:43;18.23;;;10.77;;
29500;SDS011;16450;50.288;10.966;2023-02-15T11:24:51;19.00;;;10.87;;
29500;SDS011;16450;50.288;10.966;2023-02-15T11:27:53;19.40;;;10.90;;
29500;SDS011;16450;50.288;10.966;2023-02-15T11:30:56;21.20;;;13.10;;
29500;SDS011;16450;50.288;10.966;2023-02-15T11:34:04;19.37;;;11.33;;
29500;SDS011;16450;50.288;10.966;2023-02-15T11:37:15;18.40;;;10.80;;
29500;SDS011;16450;50.288;10.966;2023-02-15T11:40:24;20.53;;;11.23;;
29500;SDS011;16450;50.288;10.966;2023-02-15T11:46:42;20.83;;;11.57;;
29500;SDS011;16450;50.288;10.966;2023-02-15T11:49:44;18.30;;;11.13;;
29500;SDS011;16450;50.288;10.966;2023-02-15T11:52:47;21.60;;;12.47;;
29500;SDS011;16450;50.288;10.966;2023-02-15T11:55:49;19.60;;;11.23;;
29500;SDS011;16450;50.288;10.966;2023-02-15T12:01:59;20.03;;;10.87;;
29500;SDS011;16450;50.288;10.966;2023-02-15T12:05:03;18.93;;;11.83;;
29500;SDS011;16450;50.288;10.966;2023-02-15T12:08:12;21.43;;;11.53;;
29500;SDS011;16450;50.288;10.966;2023-02-15T12:11:20;18.60;;;11.40;;
29500;SDS011;16450;50.288;10.966;2023-02-15T12:14:30;18.13;;;10.90;;
29500;SDS011;16450;50.288;10.966;2023-02-15T12:17:50;19.20;;;11.07;;
29500;SDS011;16450;50.288;10.966;2023-02-15T12:20:53;20.33;;;11.63;;
29500;SDS011;16450;50.288;10.966;2023-02-15T12:24:18;19.23;;;11.33;;
29500;SDS011;16450;50.288;10.966;2023-02-15T12:27:33;20.67;;;12.37;;
29500;SDS011;16450;50.288;10.966;2023-02-15T12:30:36;18.03;;;10.97;;
29500;SDS011;16450;50.288;10.966;2023-02-15T12:33:39;19.90;;;11.43;;
29500;SDS011;16450;50.288;10.966;2023-02-15T12:36:47;20.43;;;11.63;;
29500;SDS011;16450;50.288;10.966;2023-02-15T12:39:56;19.47;;;10.90;;
29500;SDS011;16450;50.288;10.966;2023-02-15T12:43:03;19.00;;;11.10;;
29500;SDS011;16450;50.288;10.966;2023-02-15T12:49:25;20.07;;;11.83;;
29500;SDS011;16450;50.288;10.966;2023-02-15T12:52:28;19.03;;;10.97;;
29500;SDS011;16450;50.288;10.966;2023-02-15T12:55:30;20.80;;;12.17;;
29500;SDS011;16450;50.288;10.966;2023-02-15T12:58:38;21.57;;;12.57;;
29500;SDS011;16450;50.288;10.966;2023-02-15T13:01:41;22.13;;;12.97;;
29500;SDS011;16450;50.288;10.966;2023-02-15T13:04:47;22.03;;;12.40;;
29500;SDS011;16450;50.288;10.966;2023-02-15T13:07:51;22.17;;;12.80;;
29500;SDS011;16450;50.288;10.966;2023-02-15T13:14:19;21.53;;;12.57;;
29500;SDS011;16450;50.288;10.966;2023-02-15T13:17:34;21.23;;;12.77;;
29500;SDS011;16450;50.288;10.966;2023-02-15T13:20:36;21.67;;;12.20;;
29500;SDS011;16450;50.288;10.966;2023-02-15T13:23:49;19.17;;;11.53;;
29500;SDS011;16450;50.288;10.966;2023-02-15T13:26:55;21.43;;;12.80;;
29500;SDS011;16450;50.288;10.966;2023-02-15T13:30:28;24.97;;;14.10;;
29500;SDS011;16450;50.288;10.966;2023-02-15T13:33:36;24.20;;;13.30;;
29500;SDS011;16450;50.288;10.966;2023-02-15T13:39:58;25.27;;;14.00;;
29500;SDS011;16450;50.288;10.966;2023-02-15T13:43:12;25.13;;;13.67;;
29500;SDS011;16450;50.288;10.966;2023-02-15T14:17:03;26.07;;;15.30;;
29500;SDS011;16450;50.288;10.966;2023-02-15T14:30:18;26.33;;;15.40;;
29500;SDS011;16450;50.288;10.966;2023-02-15T14:33:37;24.97;;;15.30;;
29500;SDS011;16450;50.288;10.966;2023-02-15T14:36:49;25.83;;;15.60;;
29500;SDS011;16450;50.288;10.966;2023-02-15T14:47:22;28.43;;;15.80;;
29500;SDS011;16450;50.288;10.966;2023-02-15T14:53:38;27.87;;;16.43;;
29500;SDS011;16450;50.288;10.966;2023-02-15T14:56:41;27.00;;;15.00;;
29500;SDS011;16450;50.288;10.966;2023-02-15T14:59:50;32.70;;;17.07;;
29500;SDS011;16450;50.288;10.966;2023-02-15T15:02:58;30.70;;;17.27;;
29500;SDS011;16450;50.288;10.966;2023-02-15T15:06:02;28.87;;;16.50;;
29500;SDS011;16450;50.288;10.966;2023-02-15T15:09:10;29.27;;;16.93;;
29500;SDS011;16450;50.288;10.966;2023-02-15T15:12:35;30.40;;;16.93;;
29500;SDS011;16450;50.288;10.966;2023-02-15T15:15:45;27.30;;;15.87;;
29500;SDS011;16450;50.288;10.966;2023-02-15T15:18:48;30.83;;;17.17;;
29500;SDS011;16450;50.288;10.966;2023-02-15T15:24:57;28.57;;;16.67;;
29500;SDS011;16450;50.288;10.966;2023-02-15T15:27:59;31.17;;;16.90;;
29500;SDS011;16450;50.288;10.966;2023-02-15T15:34:15;31.10;;;17.50;;
29500;SDS011;16450;50.288;10.966;2023-02-15T15:37:57;29.33;;;16.50;;
29500;SDS011;16450;50.288;10.966;2023-02-15T15:41:17;31.57;;;17.50;;
29500;SDS011;16450;50.288;10.966;2023-02-15T15:51:20;31.37;;;18.07;;
29500;SDS011;16450;50.288;10.966;2023-02-15T15:54:27;31.93;;;18.07;;
29500;SDS011;16450;50.288;10.966;2023-02-15T15:57:31;28.83;;;15.93;;
29500;SDS011;16450;50.288;10.966;2023-02-15T16:00:41;32.80;;;18.07;;
29500;SDS011;16450;50.288;10.966;2023-02-15T16:03:52;30.90;;;16.90;;
29500;SDS011;16450;50.288;10.966;2023-02-15T16:06:56;34.00;;;19.30;;
29500;SDS011;16450;50.288;10.966;2023-02-15T16:10:19;33.07;;;18.77;;
29500;SDS011;16450;50.288;10.966;2023-02-15T16:13:21;32.37;;;17.50;;
29500;SDS011;16450;50.288;10.966;2023-02-15T16:16:25;34.07;;;19.83;;
29500;SDS011;16450;50.288;10.966;2023-02-15T16:19:32;33.77;;;18.37;;
29500;SDS011;16450;50.288;10.966;2023-02-15T16:22:36;36.40;;;19.63;;
29500;SDS011;16450;50.288;10.966;2023-02-15T16:28:58;31.00;;;18.03;;
29500;SDS011;16450;50.288;10.966;2023-02-15T16:35:28;33.37;;;17.33;;
29500;SDS011;16450;50.288;10.966;2023-02-15T16:41:44;33.80;;;18.40;;
29500;SDS011;16450;50.288;10.966;2023-02-15T16:44:50;34.37;;;18.97;;
29500;SDS011;16450;50.288;10.966;2023-02-15T16:47:56;36.83;;;18.30;;
29500;SDS011;16450;50.288;10.966;2023-02-15T16:51:00;36.07;;;19.00;;
29500;SDS011;16450;50.288;10.966;2023-02-15T16:54:07;33.33;;;18.43;;
29500;SDS011;16450;50.288;10.966;2023-02-15T16:57:18;33.93;;;18.77;;
29500;SDS011;16450;50.288;10.966;2023-02-15T17:00:22;37.53;;;20.67;;
29500;SDS011;16450;50.288;10.966;2023-02-15T17:03:28;34.87;;;19.10;;
29500;SDS011;16450;50.288;10.966;2023-02-15T17:06:30;45.43;;;25.77;;
29500;SDS011;16450;50.288;10.966;2023-02-15T17:09:32;57.73;;;30.77;;
29500;SDS011;16450;50.288;10.966;2023-02-15T17:19:14;80.23;;;36.00;;
29500;SDS011;16450;50.288;10.966;2023-02-15T17:22:27;180.87;;;74.57;;
29500;SDS011;16450;50.288;10.966;2023-02-15T17:25:37;62.47;;;29.17;;
29500;SDS011;16450;50.288;10.966;2023-02-15T17:28:50;49.80;;;26.40;;
29500;SDS011;16450;50.288;10.966;2023-02-15T17:32:12;50.73;;;24.47;;
29500;SDS011;16450;50.288;10.966;2023-02-15T17:35:19;42.03;;;21.87;;
29500;SDS011;16450;50.288;10.966;2023-02-15T17:38:22;41.43;;;21.73;;
29500;SDS011;16450;50.288;10.966;2023-02-15T17:41:25;42.70;;;21.40;;
29500;SDS011;16450;50.288;10.966;2023-02-15T17:44:28;42.00;;;20.43;;
29500;SDS011;16450;50.288;10.966;2023-02-15T17:47:30;42.03;;;21.40;;
29500;SDS011;16450;50.288;10.966;2023-02-15T17:50:32;44.47;;;22.80;;
29500;SDS011;16450;50.288;10.966;2023-02-15T17:53:34;39.03;;;19.77;;
29500;SDS011;16450;50.288;10.966;2023-02-15T17:56:36;45.63;;;22.77;;
29500;SDS011;16450;50.288;10.966;2023-02-15T17:59:39;46.80;;;22.17;;
29500;SDS011;16450;50.288;10.966;2023-02-15T18:03:00;56.50;;;27.23;;
29500;SDS011;16450;50.288;10.966;2023-02-15T18:06:21;48.30;;;24.97;;
29500;SDS011;16450;50.288;10.966;2023-02-15T18:09:41;45.27;;;23.77;;
29500;SDS011;16450;50.288;10.966;2023-02-15T18:13:02;44.93;;;22.93;;
29500;SDS011;16450;50.288;10.966;2023-02-15T18:16:04;46.83;;;22.63;;
29500;SDS011;16450;50.288;10.966;2023-02-15T18:19:09;45.20;;;23.10;;
29500;SDS011;16450;50.288;10.966;2023-02-15T18:22:17;46.10;;;23.50;;
29500;SDS011;16450;50.288;10.966;2023-02-15T18:25:20;47.63;;;24.13;;
29500;SDS011;16450;50.288;10.966;2023-02-15T18:28:24;46.97;;;23.43;;
29500;SDS011;16450;50.288;10.966;2023-02-15T18:31:27;48.93;;;23.93;;
29500;SDS011;16450;50.288;10.966;2023-02-15T18:34:36;45.30;;;23.67;;
29500;SDS011;16450;50.288;10.966;2023-02-15T18:37:40;48.40;;;23.67;;
29500;SDS011;16450;50.288;10.966;2023-02-15T18:40:43;49.70;;;22.90;;
29500;SDS011;16450;50.288;10.966;2023-02-15T18:43:45;54.63;;;28.57;;
29500;SDS011;16450;50.288;10.966;2023-02-15T18:46:49;54.23;;;25.60;;
29500;SDS011;16450;50.288;10.966;2023-02-15T18:49:51;57.57;;;27.83;;
29500;SDS011;16450;50.288;10.966;2023-02-15T18:52:53;56.27;;;25.60;;
29500;SDS011;16450;50.288;10.966;2023-02-15T18:55:55;51.37;;;24.37;;
29500;SDS011;16450;50.288;10.966;2023-02-15T18:58:57;58.13;;;26.10;;
29500;SDS011;16450;50.288;10.966;2023-02-15T19:01:59;53.63;;;24.47;;
29500;SDS011;16450;50.288;10.966;2023-02-15T19:05:01;53.90;;;24.00;;
29500;SDS011;16450;50.288;10.966;2023-02-15T19:08:03;56.77;;;23.97;;
29500;SDS011;16450;50.288;10.966;2023-02-15T19:11:08;51.50;;;25.63;;
29500;SDS011;16450;50.288;10.966;2023-02-15T19:14:20;51.83;;;24.10;;
29500;SDS011;16450;50.288;10.966;2023-02-15T19:17:25;53.97;;;25.97;;
29500;SDS011;16450;50.288;10.966;2023-02-15T19:20:31;55.77;;;24.67;;
29500;SDS011;16450;50.288;10.966;2023-02-15T19:23:36;58.03;;;28.10;;
29500;SDS011;16450;50.288;10.966;2023-02-15T19:26:39;61.33;;;25.10;;
29500;SDS011;16450;50.288;10.966;2023-02-15T19:29:46;48.90;;;24.43;;
29500;SDS011;16450;50.288;10.966;2023-02-15T19:32:48;54.90;;;25.33;;
29500;SDS011;16450;50.288;10.966;2023-02-15T19:35:51;55.93;;;26.77;;
29500;SDS011;16450;50.288;10.966;2023-02-15T19:38:57;56.73;;;26.67;;
29500;SDS011;16450;50.288;10.966;2023-02-15T19:41:59;54.03;;;24.03;;
29500;SDS011;16450;50.288;10.966;2023-02-15T19:45:01;52.07;;;24.40;;
29500;SDS011;16450;50.288;10.966;2023-02-15T19:48:04;62.60;;;26.93;;
29500;SDS011;16450;50.288;10.966;2023-02-15T19:51:07;60.07;;;24.97;;
29500;SDS011;16450;50.288;10.966;2023-02-15T19:54:18;57.77;;;25.53;;
29500;SDS011;16450;50.288;10.966;2023-02-15T19:57:27;60.17;;;26.57;;
29500;SDS011;16450;50.288;10.966;2023-02-15T20:00:32;50.93;;;25.33;;
29500;SDS011;16450;50.288;10.966;2023-02-15T20:03:34;57.53;;;24.13;;
29500;SDS011;16450;50.288;10.966;2023-02-15T20:06:36;53.97;;;23.80;;
29500;SDS011;16450;50.288;10.966;2023-02-15T20:09:38;54.43;;;26.10;;
29500;SDS011;16450;50.288;10.966;2023-02-15T20:12:41;50.70;;;23.70;;
29500;SDS011;16450;50.288;10.966;2023-02-15T20:15:43;59.13;;;25.40;;
29500;SDS011;16450;50.288;10.966;2023-02-15T20:18:46;52.60;;;24.53;;
29500;SDS011;16450;50.288;10.966;2023-02-15T20:21:47;56.97;;;25.90;;
29500;SDS011;16450;50.288;10.966;2023-02-15T20:24:52;55.70;;;24.83;;
29500;SDS011;16450;50.288;10.966;2023-02-15T20:27:56;53.67;;;23.73;;
29500;SDS011;16450;50.288;10.966;2023-02-15T20:30:59;59.53;;;24.90;;
29500;SDS011;16450;50.288;10.966;2023-02-15T20:34:01;49.23;;;21.67;;
29500;SDS011;16450;50.288;10.966;2023-02-15T20:37:03;55.93;;;25.47;;
29500;SDS011;16450;50.288;10.966;2023-02-15T20:40:15;59.17;;;24.90;;
29500;SDS011;16450;50.288;10.966;2023-02-15T20:43:20;57.13;;;24.67;;
29500;SDS011;16450;50.288;10.966;2023-02-15T20:46:23;55.00;;;23.80;;